Latest Weather Observations for Luncheon Hill

IDT60801

Issued at 8:31 pm EDT Monday 17 December 2018 (issued every 10 minutes, with the page automatically refreshed every 10 minutes)

About weather observations | Map of weather stations | Latest weather observations for TAS | Other Formats
Station Details ID: 091259 Name: LUNCHEON HILL (FORESTRY) Lat: -41.15 Lon: 145.15 Height: 344.0 m
Data from the previous 72 hours. | See also: Recent months at Luncheon Hill
Date/Time
EDT
Temp
°C
App
Temp
°C
Dew
Point
°C
Rel
Hum
%
Delta-T
°C
Wind Press
QNH
hPa
Press
MSL
hPa
Rain since
9am
mm
Dir  Spd
km/h
Gust
km/h
Spd
kts
Gust
kts
17/08:30pm 13.7 10.1 11.8 88 1.0 S 22 39 12 21 - - 0.2
17/08:00pm 14.2 10.3 12.1 87 1.2 S 24 37 13 20 - - 0.2
17/07:30pm 14.5 10.6 12.2 86 1.3 S 24 39 13 21 - - 0.2
17/07:24pm 14.5 9.9 12.2 86 1.3 S 28 46 15 25 - - 0.2
17/07:00pm 14.7 9.2 12.0 84 1.5 S 32 44 17 24 - - 0.2
17/06:47pm 14.9 9.4 12.0 83 1.6 S 32 50 17 27 - - 0.2
17/06:30pm 15.8 11.7 12.7 82 1.7 S 26 43 14 23 - - 0.2
17/06:00pm 16.1 11.1 12.3 78 2.1 SSW 30 46 16 25 - - 0.2
17/05:34pm 16.6 11.8 12.8 78 2.1 SSW 30 50 16 27 - - 0.2
17/05:30pm 16.7 11.5 12.8 78 2.2 SSW 32 48 17 26 - - 0.2
17/05:01pm 16.9 11.8 13.0 78 2.2 SSW 32 50 17 27 - - 0.2
17/05:00pm 16.8 11.4 12.7 77 2.3 SSW 33 50 18 27 - - 0.2
17/04:43pm 17.3 12.9 12.8 75 2.5 SSW 28 48 15 26 - - 0.2
17/04:30pm 17.9 13.6 13.2 74 2.7 SSW 28 43 15 23 - - 0.2
17/04:08pm 17.3 12.6 13.2 77 2.3 SSW 30 48 16 26 - - 0.2
17/04:00pm 16.7 11.2 12.5 76 2.4 SSW 33 50 18 27 - - 0.2
17/03:46pm 18.4 14.5 14.3 77 2.4 SSW 28 46 15 25 - - 0.2
17/03:30pm 17.5 13.9 13.2 76 2.5 S 24 39 13 21 - - 0.2
17/03:00pm 18.0 12.4 13.3 74 2.7 SSW 35 57 19 31 - - 0.2
17/02:32pm 18.5 14.3 13.4 72 2.9 S 28 46 15 25 - - 0.2
17/02:30pm 18.7 15.0 14.0 74 2.7 S 26 44 14 24 - - 0.2
17/02:00pm 18.0 12.4 13.3 74 2.7 S 35 57 19 31 - - 0.2
17/01:30pm 17.6 11.9 12.9 74 2.7 SSW 35 61 19 33 - - 0.2
17/01:03pm 17.8 13.7 13.7 77 2.4 S 28 54 15 29 - - 0.2
17/01:00pm 17.5 13.3 13.6 78 2.2 S 28 44 15 24 - - 0.2
17/12:30pm 16.9 12.5 13.0 78 2.2 S 28 52 15 28 - - 0.2
17/12:21pm 17.2 12.8 14.1 82 1.8 S 30 48 16 26 - - 0.2
17/12:00pm 16.1 11.2 13.6 85 1.4 SSW 32 48 17 26 - - 0.2
17/11:35am 16.7 12.6 13.8 83 1.7 SSW 28 46 15 25 - - 0.2
17/11:30am 16.5 12.6 13.4 82 1.8 SSW 26 46 14 25 - - 0.2
17/11:00am 17.1 12.2 13.6 80 2.0 S 32 54 17 29 - - 0.0
17/10:45am 16.8 12.7 13.9 83 1.7 S 28 48 15 26 - - 0.0
17/10:30am 16.1 11.2 13.6 85 1.4 SSW 32 46 17 25 - - 0.0
17/10:18am 16.7 12.3 14.0 84 1.6 SSW 30 48 16 26 - - 0.0
17/10:00am 16.1 12.0 15.0 93 0.6 SSW 30 43 16 23 - - 0.0
17/09:30am 15.2 12.2 14.9 98 0.2 SSW 24 39 13 21 - - 0.0
17/09:00am 14.8 11.7 14.5 98 0.2 SSW 24 41 13 22 - - 7.0
17/08:30am 14.2 11.6 13.9 98 0.2 SSW 20 30 11 16 - - 7.0
17/08:00am 13.6 10.8 13.3 98 0.2 SW 20 35 11 19 - - 7.0
17/07:30am 13.7 11.5 13.4 98 0.2 SW 17 26 9 14 - - 7.0
17/07:00am 13.5 12.4 13.2 98 0.2 SW 11 20 6 11 - - 7.0
17/06:30am 13.4 12.7 13.1 98 0.2 SW 9 15 5 8 - - 7.0
17/06:00am 13.2 12.4 12.9 98 0.2 SW 9 13 5 7 - - 7.0
17/05:30am 13.2 12.0 12.9 98 0.2 SW 11 15 6 8 - - 7.0
17/05:00am 13.1 12.3 12.8 98 0.2 SW 9 15 5 8 - - 7.0
17/04:30am 13.2 12.0 12.9 98 0.2 WSW 11 17 6 9 - - 7.0
17/04:00am 13.2 12.0 12.9 98 0.2 W 11 19 6 10 - - 7.0
17/03:30am 13.2 12.0 12.9 98 0.2 W 11 15 6 8 - - 7.0
17/03:00am 13.2 12.8 12.9 98 0.2 SW 7 11 4 6 - - 7.0
17/02:30am 13.1 11.9 12.8 98 0.2 SW 11 17 6 9 - - 7.0
17/02:00am 13.1 12.3 12.8 98 0.2 SW 9 17 5 9 - - 7.0
17/01:30am 13.1 11.9 12.8 98 0.2 SSW 11 15 6 8 - - 7.0
17/01:00am 13.2 12.0 12.7 97 0.3 WSW 11 20 6 11 - - 7.0
17/12:30am 13.7 13.0 13.2 97 0.3 SW 9 15 5 8 - - 7.0
17/12:00am 13.9 13.3 13.4 97 0.3 SSW 9 13 5 7 - - 7.0
 
Date/Time
EDT
Temp
°C
App
Temp
°C
Dew
Point
°C
Rel
Hum
%
Delta-T
°C
Wind Press
QNH
hPa
Press
MSL
hPa
Rain since
9am
mm
Dir  Spd
km/h
Gust
km/h
Spd
kts
Gust
kts
16/11:30pm 14.0 12.6 13.5 97 0.3 SW 13 17 7 9 - - 7.0
16/11:00pm 14.0 13.0 13.5 97 0.3 SSW 11 15 6 8 - - 7.0
16/10:30pm 14.2 12.9 13.6 96 0.3 S 13 13 7 7 - - 7.0
16/10:00pm 14.2 13.3 13.6 96 0.3 S 11 17 6 9 - - 7.0
16/09:30pm 14.7 13.5 13.9 95 0.5 SSW 13 17 7 9 - - 7.0
16/09:00pm 15.2 14.0 14.1 93 0.6 SW 13 17 7 9 - - 7.0
16/08:30pm 15.9 15.1 14.1 89 1.0 W 11 19 6 10 - - 7.0
16/08:00pm 17.0 15.8 13.9 82 1.8 W 13 17 7 9 - - 7.0
16/07:30pm 18.6 20.0 14.3 76 2.5 CALM 0 0 0 0 - - 7.0
16/07:00pm 18.0 17.5 14.9 82 1.8 W 11 17 6 9 - - 7.0
16/06:30pm 16.7 15.1 14.0 84 1.6 WNW 15 19 8 10 - - 7.0
16/06:00pm 16.8 14.6 14.3 85 1.5 WNW 19 28 10 15 - - 7.0
16/05:30pm 16.5 14.2 14.0 85 1.4 NW 19 24 10 13 - - 7.0
16/05:00pm 17.3 14.8 14.2 82 1.8 NNW 20 26 11 14 - - 7.0
16/04:30pm 16.2 12.1 13.9 86 1.3 NW 28 33 15 18 - - 7.0
16/04:00pm 17.0 14.2 14.3 84 1.6 N 22 28 12 15 - - 7.0
16/03:30pm 16.1 13.6 14.1 88 1.2 NNW 20 32 11 17 - - 7.0
16/03:00pm 18.1 18.0 15.9 87 1.3 N 11 13 6 7 - - 7.0
16/02:30pm 16.9 16.8 15.9 94 0.6 S 11 15 6 8 - - 7.0
16/02:00pm 16.3 15.6 15.5 95 0.5 SSW 13 20 7 11 - - 7.0
16/01:30pm 15.4 14.9 14.8 96 0.3 SW 11 17 6 9 - - 7.0
16/01:00pm 14.1 12.4 13.6 97 0.3 SSW 15 20 8 11 - - 6.8
16/12:30pm 13.4 8.3 13.1 98 0.2 N 32 43 17 23 - - 6.0
16/12:00pm 14.1 9.6 13.8 98 0.2 NNE 30 37 16 20 - - 3.6
16/11:30am 14.3 8.5 13.8 97 0.3 N 37 46 20 25 - - 1.6
16/11:17am 14.7 10.7 14.2 97 0.3 N 28 43 15 23 - - 1.4
16/11:00am 15.5 14.3 15.0 97 0.3 N 15 20 8 11 - - 1.4
16/10:30am 16.0 15.0 15.5 97 0.3 NNE 15 22 8 12 - - 1.0
16/10:00am 16.4 15.9 15.9 97 0.3 N 13 15 7 8 - - 0.2
16/09:30am 17.0 16.7 16.5 97 0.3 NE 13 17 7 9 - - 0.0
16/09:00am 16.5 15.7 16.2 98 0.2 E 15 22 8 12 - - 9.2
16/08:30am 16.2 14.9 15.9 98 0.2 ENE 17 26 9 14 - - 9.2
16/08:00am 16.0 15.0 15.7 98 0.2 E 15 24 8 13 - - 9.2
16/07:30am 15.8 14.8 15.5 98 0.2 E 15 24 8 13 - - 9.2
16/07:00am 15.8 14.4 15.5 98 0.2 ENE 17 22 9 12 - - 9.2
16/06:30am 15.5 13.6 15.2 98 0.2 NE 19 26 10 14 - - 9.2
16/06:00am 15.5 12.6 15.2 98 0.2 NE 24 30 13 16 - - 9.2
16/05:30am 15.6 12.4 15.3 98 0.2 NE 26 33 14 18 - - 9.0
16/05:00am 15.9 13.2 15.6 98 0.2 ENE 24 32 13 17 - - 8.6
16/04:30am 16.1 13.8 15.8 98 0.2 ENE 22 32 12 17 - - 8.4
16/04:00am 16.3 13.0 16.0 98 0.2 ENE 28 39 15 21 - - 6.8
16/03:30am 16.4 12.4 16.1 98 0.2 ENE 32 43 17 23 - - 5.0
16/03:01am 16.4 13.1 16.1 98 0.2 ENE 28 46 15 25 - - 4.6
16/03:00am 16.4 12.7 16.1 98 0.2 ENE 30 46 16 25 - - 4.6
16/02:50am 16.4 12.4 16.1 98 0.2 ENE 32 50 17 27 - - 4.0
16/02:30am 16.6 13.0 16.3 98 0.2 ENE 30 44 16 24 - - 3.2
16/02:19am 16.7 13.5 16.4 98 0.2 ENE 28 46 15 25 - - 3.2
16/02:00am 16.8 13.3 16.5 98 0.2 ENE 30 44 16 24 - - 3.2
16/01:30am 17.0 13.0 16.7 98 0.2 ENE 33 48 18 26 - - 3.0
16/01:27am 17.0 13.6 16.7 98 0.2 ENE 30 48 16 26 - - 3.0
16/01:00am 17.1 13.6 16.6 97 0.3 ENE 30 43 16 23 - - 3.0
16/12:30am 17.1 14.0 16.6 97 0.3 ENE 28 37 15 20 - - 2.4
16/12:00am 17.1 14.0 16.6 97 0.3 ENE 28 41 15 22 - - 2.4
 
Date/Time
EDT
Temp
°C
App
Temp
°C
Dew
Point
°C
Rel
Hum
%
Delta-T
°C
Wind Press
QNH
hPa
Press
MSL
hPa
Rain since
9am
mm
Dir  Spd
km/h
Gust
km/h
Spd
kts
Gust
kts
15/11:30pm 17.1 14.0 16.5 96 0.4 ENE 28 39 15 21 - - 2.2
15/11:00pm 17.0 14.2 16.4 96 0.4 NE 26 39 14 21 - - 1.2
15/10:37pm 16.9 13.7 16.3 96 0.4 E 28 48 15 26 - - 1.2
15/10:30pm 16.8 14.6 16.0 95 0.5 E 22 33 12 18 - - 1.2
15/10:00pm 16.7 15.4 15.7 94 0.6 ESE 17 30 9 16 - - 1.2
15/09:30pm 17.0 15.1 15.7 92 0.8 E 20 39 11 21 - - 0.6
15/09:00pm 17.2 14.8 15.5 90 1.0 E 22 37 12 20 - - 0.4
15/08:30pm 18.2 14.5 14.9 81 1.9 E 28 43 15 23 - - 0.4
15/08:00pm 18.3 13.8 15.0 81 2.0 ENE 32 56 17 30 - - 0.4
15/07:30pm 18.6 14.0 15.1 80 2.1 E 33 52 18 28 - - 0.4
15/07:00pm 18.7 15.0 15.0 79 2.2 E 28 48 15 26 - - 0.4
15/06:30pm 18.6 14.5 14.9 79 2.2 E 30 54 16 29 - - 0.4
15/06:00pm 18.6 14.6 15.1 80 2.1 E 30 48 16 26 - - 0.4
15/05:33pm 18.2 13.8 15.1 82 1.8 ENE 32 56 17 30 - - 0.4
15/05:30pm 18.2 13.9 15.5 84 1.6 ENE 32 48 17 26 - - 0.4
15/05:18pm 18.0 13.7 15.4 85 1.5 ENE 32 50 17 27 - - 0.4
15/05:00pm 18.4 13.5 15.3 82 1.8 ENE 35 50 19 27 - - 0.4
15/04:36pm 19.1 16.1 16.7 86 1.5 E 28 46 15 25 - - 0.4
15/04:30pm 18.4 15.5 16.2 87 1.3 E 26 44 14 24 - - 0.4
15/04:00pm 18.5 17.4 17.7 95 0.5 E 20 33 11 18 - - 0.4
15/03:34pm 17.1 13.8 16.0 93 0.7 ENE 28 46 15 25 - - 0.4
15/03:30pm 17.3 14.4 16.0 92 0.8 ENE 26 37 14 20 - - 0.4
15/03:12pm 18.0 14.2 15.8 87 1.3 ENE 30 50 16 27 - - 0.4
15/03:00pm 18.3 15.8 16.1 87 1.3 E 24 43 13 23 - - 0.4
15/02:30pm 18.1 15.0 15.7 86 1.4 ENE 26 44 14 24 - - 0.2
15/02:03pm 17.7 14.3 15.7 88 1.2 ENE 28 48 15 26 - - 0.2
15/02:00pm 17.7 14.6 15.7 88 1.2 ENE 26 43 14 23 - - 0.2
15/01:50pm 18.4 14.9 15.5 83 1.7 E 28 50 15 27 - - 0.2
15/01:30pm 18.2 15.5 15.6 85 1.6 E 24 43 13 23 - - 0.2
15/01:06pm 17.6 14.0 15.2 86 1.4 E 28 46 15 25 - - 0.2
15/01:00pm 17.7 14.1 15.3 86 1.4 E 28 44 15 24 - - 0.2
15/12:30pm 18.9 14.6 15.4 80 2.1 E 32 57 17 31 - - 0.2
15/12:00pm 18.8 13.4 14.9 78 2.3 E 37 56 20 30 - - 0.2
15/11:30am 18.4 14.7 14.9 80 2.1 E 28 50 15 27 - - 0.2
15/11:00am 18.2 14.6 15.3 83 1.7 E 28 57 15 31 - - 0.2
15/10:37am 17.2 13.6 15.2 88 1.2 ESE 28 54 15 29 - - 0.2
15/10:30am 17.0 13.4 15.2 89 1.1 ESE 28 44 15 24 - - 0.2
15/10:00am 17.3 13.4 14.4 83 1.7 E 28 50 15 27 - - 0.0
15/09:30am 17.5 13.4 13.8 79 2.1 E 28 52 15 28 - - 0.0
15/09:10am 17.4 13.3 13.9 80 2.0 E 28 50 15 27 - - 0.0
15/09:00am 17.1 13.8 14.0 82 1.8 ESE 24 44 13 24 - - 0.8
15/08:38am 16.8 12.7 13.9 83 1.7 ESE 28 50 15 27 - - 0.8
15/08:30am 16.5 12.8 13.8 84 1.6 E 26 41 14 22 - - 0.8
15/08:00am 15.6 12.9 13.6 88 1.1 E 20 33 11 18 - - 0.8
15/07:34am 15.9 11.6 13.2 84 1.5 E 28 46 15 25 - - 0.6
15/07:30am 16.1 11.3 13.0 82 1.8 E 30 46 16 25 - - 0.4
15/07:09am 17.0 12.5 12.7 76 2.4 E 28 50 15 27 - - 0.4
15/07:00am 17.2 13.4 12.5 74 2.6 E 24 44 13 24 - - 0.4
15/06:34am 17.1 12.2 12.4 74 2.6 ESE 30 50 16 27 - - 0.4
15/06:30am 17.1 12.5 12.4 74 2.6 ESE 28 43 15 23 - - 0.4
15/06:00am 17.0 12.0 12.1 73 2.7 E 30 52 16 28 - - 0.4
15/05:41am 16.9 11.9 12.2 74 2.6 E 30 57 16 31 - - 0.4
15/05:30am 16.8 12.2 12.3 75 2.5 E 28 44 15 24 - - 0.4
15/05:00am 16.7 12.5 12.5 76 2.4 E 26 43 14 23 - - 0.4
15/04:30am 16.7 12.9 12.5 76 2.4 E 24 37 13 20 - - 0.4
15/04:00am 16.5 13.7 12.5 77 2.2 E 19 32 10 17 - - 0.4
15/03:30am 16.8 13.0 12.5 76 2.4 E 24 43 13 23 - - 0.4
15/03:00am 16.7 12.2 12.5 76 2.4 E 28 50 15 27 - - 0.4
15/02:58am 16.7 12.2 12.5 76 2.4 E 28 50 15 27 - - 0.4
15/02:30am 16.9 13.2 12.6 76 2.4 E 24 44 13 24 - - 0.4
15/02:00am 17.1 13.7 12.4 74 2.6 E 22 39 12 21 - - 0.4
15/01:30am 17.2 13.8 12.5 74 2.6 E 22 35 12 19 - - 0.4
15/01:00am 17.1 13.7 12.6 75 2.5 E 22 33 12 18 - - 0.4
15/12:30am 17.3 14.3 12.6 74 2.7 E 20 37 11 20 - - 0.4
15/12:00am 17.2 15.2 12.7 75 2.5 ESE 15 30 8 16 - - 0.4
 
Date/Time
EDT
Temp
°C
App
Temp
°C
Dew
Point
°C
Rel
Hum
%
Delta-T
°C
Wind Press
QNH
hPa
Press
MSL
hPa
Rain since
9am
mm
Dir  Spd
km/h
Gust
km/h
Spd
kts
Gust
kts
14/11:30pm 17.1 15.4 12.6 75 2.5 ESE 13 24 7 13 - - 0.4
14/11:00pm 17.3 14.3 12.6 74 2.7 ESE 20 37 11 20 - - 0.4
14/10:30pm 17.3 14.9 12.6 74 2.7 ESE 17 32 9 17 - - 0.4
14/10:00pm 17.5 14.5 12.6 73 2.8 E 20 32 11 17 - - 0.4
14/09:30pm 17.5 15.3 13.2 76 2.5 ESE 17 26 9 14 - - 0.4
14/09:00pm 17.1 15.8 13.8 81 1.9 E 13 19 7 10 - - 0.4

Other Formats:

Comma delimited format used in spreadsheet applications
http://www.bom.gov.au/fwo/IDT60801/IDT60801.95956.axf

JavaScript Object Notation format (JSON) in row-major order
http://www.bom.gov.au/fwo/IDT60801/IDT60801.95956.json